Skip to main content
JAPN logo

JAPN · Horizon Kinetics Japan Owner Operator ETF ETF

Alerts for JAPN
$25.92 +0.32 (+1.23%) At close · Sep 4

Shares sold short and not yet covered, reported twice monthly. Days to cover is the reported short position divided by average daily volume.

JAPN Latest Reported Short Interest

FINRA reported 1,105 JAPN shares sold short as of the August 14, 2026 settlement date, a decrease of 794 shares. Days to cover was 1.00 based on FINRA's reported average daily volume.

Official FINRA short-interest data · share counts are restated for subsequent splits of this listing

Short Interest History

Settlement Date Current Position Previous Position Change Days to Cover
2026-09-15 Scheduled
FINRA publishes Sep 24
2026-08-31 Scheduled
FINRA publishes Sep 10
2026-08-14 1,105 1,899 -794 1.00
2026-07-31 1,899 1,122 +777 1.00
2026-07-15 1,122 67 +1,055 1.00
2026-06-30 67 845 -778 1.00
2026-06-15 845 1,213 -368 1.00
2026-05-29 1,213 794 +419 1.00
2026-05-15 794 1,621 -827 1.00
2026-04-30 1,621 2,093 -472 1.00
2026-04-15 2,093 124 +1,969 1.00
2026-03-31 124 7,499 -7,375 1.00
2026-03-13 7,499 14,298 -6,799 1.00
2026-02-27 14,298 13,049 +1,249 1.92
2026-02-13 13,049 51,688 -38,639 1.00
2026-01-30 51,688 12,465 +39,223 4.24
2026-01-15 12,465 4,495 +7,970 1.00
2025-12-31 4,495 5,622 -1,127 1.00
2025-12-15 5,622 9,805 -4,183 1.00
2025-11-28 9,805 22,323 -12,518 1.00
2025-11-14 22,323 19,451 +2,872 2.45
2025-10-31 19,451 19,155 +296 1.88
2025-10-15 19,155 31,681 -12,526 1.00
2025-09-30 31,681 22,009 +9,672 3.15
2025-09-15 22,009 110,704 -88,695 1.10

Full FINRA short interest reporting calendar

Showing 1–23 of 23 settlements